Time;durP1;ratioP1;P1;durP2;ratioP2;P2;SDS_P1;SDS_P2;PMS_P1;PMS_P2;Temp;Humidity;BMP_temperature;BMP_pressure;BME280_temperature;BME280_humidity;BME280_pressure;Samples;Min_cycle;Max_cycle;Signal;HPM_P1;HPM_P2
2021/10/28 00:12:22;;;;;;;12.88;9.00;;;;;;;7.92;97.82;101421.44;687560;28;3576;-51
2021/10/28 00:12:56;;;;;;;15.13;9.40;;;;;;;7.89;97.72;101419.69;686715;28;1064;-49
2021/10/28 00:13:18;;;;;;;12.90;8.90;;;;;;;7.87;97.63;101421.38;687209;28;4816;-50
2021/10/28 00:13:40;;;;;;;12.25;8.77;;;;;;;7.93;97.19;101425.81;686656;28;1321;-51
2021/10/28 00:14:01;;;;;;;13.40;9.00;;;;;;;7.91;97.71;101417.13;687777;28;1242;-52
2021/10/28 00:14:23;;;;;;;14.95;9.40;;;;;;;7.90;97.34;101423.16;688030;28;1195;-50
2021/10/28 00:14:47;;;;;;;13.18;8.82;;;;;;;7.87;97.39;101416.16;686703;28;1331;-54
2021/10/28 00:15:14;;;;;;;12.63;8.88;;;;;;;7.86;97.83;101418.75;687880;28;1183;-50
2021/10/28 00:15:37;;;;;;;13.65;8.80;;;;;;;7.85;97.29;101423.09;686506;28;4061;-50
2021/10/28 00:16:07;;;;;;;13.50;8.82;;;;;;;7.87;97.66;101423.13;687589;28;4418;-54
2021/10/28 00:16:31;;;;;;;12.20;8.45;;;;;;;7.94;96.93;101418.03;686719;28;1131;-52
2021/10/28 00:16:54;;;;;;;12.02;8.45;;;;;;;7.93;96.84;101418.00;686496;28;1432;-51
2021/10/28 00:17:18;;;;;;;12.73;8.93;;;;;;;7.91;97.05;101422.31;686538;28;1363;-52
2021/10/28 00:18:38;;;;;;;13.52;9.35;;;;;;;7.90;97.54;101415.34;687214;28;3083;-53
2021/10/28 00:19:03;;;;;;;13.55;9.18;;;;;;;7.86;97.70;101419.63;685163;28;4457;-51
2021/10/28 00:19:23;;;;;;;12.63;9.00;;;;;;;7.87;96.40;101418.78;687407;28;1165;-53
2021/10/28 00:19:44;;;;;;;12.43;8.73;;;;;;;7.88;97.02;101423.13;686589;28;2698;-51
2021/10/28 00:20:06;;;;;;;12.73;8.85;;;;;;;7.88;96.94;101417.03;688007;28;1221;-52
2021/10/28 00:20:28;;;;;;;11.48;8.10;;;;;;;7.93;96.32;101415.41;686626;28;1372;-51
2021/10/28 00:20:52;;;;;;;11.55;8.18;;;;;;;7.96;96.90;101420.66;686393;28;1229;-52
2021/10/28 00:21:12;;;;;;;13.30;8.80;;;;;;;7.98;95.78;101419.84;687226;28;1139;-51
2021/10/28 00:21:35;;;;;;;13.73;9.27;;;;;;;7.96;96.29;101415.44;687249;28;3149;-50
2021/10/28 00:21:56;;;;;;;13.65;9.02;;;;;;;7.91;96.49;101411.91;686376;28;4512;-50
2021/10/28 00:22:16;;;;;;;13.53;8.93;;;;;;;7.87;97.45;101416.16;686313;28;1113;-50
2021/10/28 00:22:38;;;;;;;12.85;8.80;;;;;;;7.81;97.61;101416.06;685894;28;1078;-52
2021/10/28 00:22:59;;;;;;;13.90;9.38;;;;;;;7.76;97.98;101413.38;687355;28;1352;-51
2021/10/28 00:23:19;;;;;;;14.40;9.47;;;;;;;7.77;96.90;101414.25;687018;28;1135;-52
2021/10/28 00:23:43;;;;;;;13.02;9.18;;;;;;;7.77;97.13;101419.47;685746;28;1222;-50
2021/10/28 00:24:06;;;;;;;14.10;9.95;;;;;;;7.74;97.79;101412.47;687661;28;1043;-53
2021/10/28 00:24:27;;;;;;;14.70;9.70;;;;;;;7.72;97.78;101421.97;687819;28;1412;-54
2021/10/28 00:24:47;;;;;;;14.02;9.65;;;;;;;7.69;98.05;101415.84;685964;28;4743;-51
2021/10/28 00:25:09;;;;;;;14.50;9.60;;;;;;;7.67;98.00;101415.81;686673;28;1922;-50
2021/10/28 00:25:30;;;;;;;15.25;9.32;;;;;;;7.68;97.45;101414.94;686698;28;1208;-53
2021/10/28 00:25:50;;;;;;;13.52;9.38;;;;;;;7.71;98.02;101417.59;686643;28;1410;-51
2021/10/28 00:26:11;;;;;;;15.90;9.93;;;;;;;7.73;97.76;101410.72;688009;28;1179;-51
2021/10/28 00:26:36;;;;;;;15.60;9.63;;;;;;;7.78;97.16;101414.28;687078;28;1139;-51
2021/10/28 00:26:56;;;;;;;14.68;9.65;;;;;;;7.77;98.07;101415.13;684856;28;1153;-52
2021/10/28 00:27:18;;;;;;;14.18;9.32;;;;;;;7.74;98.23;101409.88;684023;28;1247;-50
2021/10/28 00:27:39;;;;;;;14.42;9.50;;;;;;;7.77;97.79;101415.13;683328;28;1315;-53
2021/10/28 00:28:01;;;;;;;14.07;9.77;;;;;;;7.78;98.00;101416.00;682928;28;4805;-51
2021/10/28 00:28:22;;;;;;;15.57;10.00;;;;;;;7.74;98.05;101414.19;686029;28;1333;-50
2021/10/28 00:28:42;;;;;;;14.67;9.90;;;;;;;7.76;97.51;101412.50;683677;28;1012;-54
2021/10/28 00:29:05;;;;;;;12.48;9.40;;;;;;;7.81;97.52;101416.94;684302;28;1175;-49
2021/10/28 00:29:26;;;;;;;14.07;9.50;;;;;;;7.79;97.93;101413.41;685516;28;1254;-52
2021/10/28 00:29:46;;;;;;;13.38;9.02;;;;;;;7.82;96.84;101413.50;681397;28;1326;-51
2021/10/28 00:30:07;;;;;;;11.67;8.80;;;;;;;7.92;96.13;101411.03;683446;28;1420;-51
2021/10/28 00:30:29;;;;;;;11.73;8.95;;;;;;;7.93;96.16;101418.00;681500;28;998;-52
2021/10/28 00:30:50;;;;;;;13.63;9.20;;;;;;;7.87;96.38;101405.75;682662;28;4571;-52
2021/10/28 00:31:11;;;;;;;14.50;9.60;;;;;;;7.82;97.03;101413.50;686397;28;3751;-52
2021/10/28 00:31:34;;;;;;;13.77;9.60;;;;;;;7.81;96.84;101411.72;686368;28;1434;-51
2021/10/28 00:31:57;;;;;;;13.75;9.45;;;;;;;7.86;96.38;101410.94;687910;28;1097;-52
2021/10/28 00:32:17;;;;;;;14.35;9.15;;;;;;;7.94;95.86;101407.63;687481;28;1238;-53
2021/10/28 00:32:38;;;;;;;14.10;9.25;;;;;;;7.90;96.26;101410.16;686549;28;1333;-53
2021/10/28 00:32:58;;;;;;;14.35;9.32;;;;;;;7.91;96.17;101411.91;686880;28;1459;-54
2021/10/28 00:33:19;;;;;;;13.43;9.00;;;;;;;7.88;96.23;101411.81;686667;28;1440;-53
2021/10/28 00:33:40;;;;;;;13.32;9.07;;;;;;;7.87;96.46;101410.97;686156;28;1297;-51
2021/10/28 00:34:01;;;;;;;14.75;10.05;;;;;;;7.89;96.35;101409.28;686381;28;4960;-51
2021/10/28 00:34:21;;;;;;;14.07;9.90;;;;;;;7.89;96.44;101416.19;685579;28;4010;-56
2021/10/28 00:34:42;;;;;;;14.37;10.00;;;;;;;7.82;96.80;101408.28;687220;28;1124;-53
2021/10/28 00:35:02;;;;;;;14.90;10.20;;;;;;;7.80;96.66;101415.16;687789;28;1076;-53
2021/10/28 00:35:23;;;;;;;15.55;10.20;;;;;;;7.78;96.96;101411.69;686224;28;1108;-55
2021/10/28 00:35:43;;;;;;;15.65;10.50;;;;;;;7.72;97.93;101408.06;686956;28;1204;-54
2021/10/28 00:36:06;;;;;;;14.67;9.90;;;;;;;7.68;97.56;101417.53;686943;28;1140;-52
2021/10/28 00:36:27;;;;;;;14.18;9.70;;;;;;;7.74;97.39;101412.47;687214;28;1143;-52
2021/10/28 00:36:49;;;;;;;13.68;9.23;;;;;;;7.80;96.96;101409.97;686599;28;4804;-51
2021/10/28 00:37:12;;;;;;;13.98;9.75;;;;;;;7.86;97.18;101410.94;686046;28;3618;-51
2021/10/28 00:37:33;;;;;;;13.50;9.80;;;;;;;7.81;97.14;101411.72;685957;28;1410;-56
2021/10/28 00:37:53;;;;;;;14.20;9.93;;;;;;;7.77;97.51;101415.13;683785;28;1178;-51
2021/10/28 00:38:13;;;;;;;14.80;10.33;;;;;;;7.72;97.75;101410.69;684314;28;1144;-51
2021/10/28 00:38:34;;;;;;;16.17;10.33;;;;;;;7.70;98.09;101410.66;685271;28;1368;-51
2021/10/28 00:38:57;;;;;;;15.15;9.80;;;;;;;7.78;97.42;101409.06;684341;28;1263;-52
2021/10/28 00:39:19;;;;;;;13.73;9.68;;;;;;;7.80;97.06;101407.38;682916;28;1362;-51
2021/10/28 00:39:40;;;;;;;15.52;9.93;;;;;;;7.79;97.76;101418.63;684773;28;1278;-50
2021/10/28 00:40:02;;;;;;;14.63;10.23;;;;;;;7.77;97.70;101414.25;681833;28;4305;-51
2021/10/28 00:40:23;;;;;;;14.60;10.07;;;;;;;7.74;97.97;101415.06;683332;28;3328;-52
2021/10/28 00:40:43;;;;;;;15.15;10.07;;;;;;;7.75;97.49;101411.59;683070;28;1064;-55
2021/10/28 00:41:04;;;;;;;14.40;9.80;;;;;;;7.80;97.02;101406.50;684336;28;1114;-51
2021/10/28 00:41:25;;;;;;;14.85;9.50;;;;;;;7.80;97.27;101411.69;685444;28;1321;-51
2021/10/28 00:41:46;;;;;;;14.20;9.27;;;;;;;7.80;97.29;101414.31;686485;28;1533;-52
2021/10/28 00:42:08;;;;;;;14.00;9.68;;;;;;;7.78;97.29;101410.78;687547;28;1008;-51
2021/10/28 00:42:28;;;;;;;14.57;10.00;;;;;;;7.78;96.95;101410.78;686683;28;1159;-53
2021/10/28 00:42:49;;;;;;;14.27;9.80;;;;;;;7.81;96.86;101411.72;687550;28;4409;-54
2021/10/28 00:43:10;;;;;;;12.80;9.63;;;;;;;7.77;97.05;101414.25;687486;28;1202;-52
2021/10/28 00:43:32;;;;;;;13.52;10.05;;;;;;;7.73;97.48;101413.31;686860;28;3614;-52
2021/10/28 00:43:58;;;;;;;13.98;10.13;;;;;;;7.71;97.42;101414.13;687221;28;1205;-54
2021/10/28 00:44:19;;;;;;;14.52;9.80;;;;;;;7.74;97.13;101407.25;687718;28;1295;-53
2021/10/28 00:44:44;;;;;;;13.05;9.07;;;;;;;7.81;96.96;101410.88;687236;28;1324;-52
2021/10/28 00:45:06;;;;;;;13.40;9.10;;;;;;;7.88;96.76;101412.72;687011;28;1914;-54
2021/10/28 00:45:27;;;;;;;13.32;9.38;;;;;;;7.90;95.73;101415.34;687171;28;1183;-53
2021/10/28 00:45:51;;;;;;;14.43;9.52;;;;;;;7.81;96.05;101411.72;685696;28;4293;-52
2021/10/28 00:46:16;;;;;;;13.75;9.85;;;;;;;7.77;96.55;101409.91;688380;28;1159;-51
2021/10/28 00:46:39;;;;;;;13.30;9.43;;;;;;;7.81;95.83;101405.66;686404;28;3509;-54
2021/10/28 00:47:00;;;;;;;14.18;9.82;;;;;;;7.77;96.65;101407.31;686547;28;1280;-53
2021/10/28 00:47:21;;;;;;;14.05;10.27;;;;;;;7.77;96.85;101414.25;687504;28;1448;-52
2021/10/28 00:47:41;;;;;;;13.35;10.50;;;;;;;7.75;97.64;101410.72;686191;28;981;-50
2021/10/28 00:48:02;;;;;;;13.93;10.25;;;;;;;7.71;97.51;101401.97;687415;28;1214;-54
2021/10/28 00:48:22;;;;;;;14.70;10.53;;;;;;;7.72;97.10;101411.53;686900;28;1100;-53
2021/10/28 00:48:47;;;;;;;15.63;10.40;;;;;;;7.75;97.39;101406.38;685546;28;4640;-51
2021/10/28 00:49:10;;;;;;;16.27;11.00;;;;;;;7.79;96.61;101407.34;686562;28;1614;-55
2021/10/28 00:49:30;;;;;;;14.00;10.40;;;;;;;7.79;97.07;101405.59;685023;28;1917;-52
2021/10/28 00:49:51;;;;;;;15.40;10.65;;;;;;;7.78;97.01;101406.47;686223;28;3637;-51
2021/10/28 00:50:11;;;;;;;14.03;10.40;;;;;;;7.83;96.38;101407.41;686616;28;979;-51
2021/10/28 00:50:31;;;;;;;13.90;10.20;;;;;;;7.82;96.66;101403.09;687283;28;1489;-51
2021/10/28 00:50:55;;;;;;;14.00;10.03;;;;;;;7.75;96.49;101406.38;686736;28;1067;-52
2021/10/28 00:51:21;;;;;;;13.50;10.30;;;;;;;7.71;97.43;101401.97;688747;28;1178;-52
2021/10/28 00:51:43;;;;;;;15.68;11.07;;;;;;;7.66;97.73;101401.91;687242;28;1556;-53
2021/10/28 00:52:04;;;;;;;15.48;10.82;;;;;;;7.69;96.62;101403.69;687122;28;4772;-51
2021/10/28 00:52:24;;;;;;;13.50;9.53;;;;;;;7.78;96.64;101405.56;685159;28;1028;-51
2021/10/28 00:52:44;;;;;;;14.33;10.27;;;;;;;7.75;97.12;101400.31;686521;28;3418;-52
2021/10/28 00:53:05;;;;;;;15.30;10.32;;;;;;;7.71;97.42;101401.97;687681;28;1382;-52
2021/10/28 00:53:25;;;;;;;15.10;10.27;;;;;;;7.71;97.74;101408.91;688604;28;1229;-56
2021/10/28 00:53:46;;;;;;;15.80;10.90;;;;;;;7.67;97.80;101397.59;687729;28;1059;-52
2021/10/28 00:54:11;;;;;;;15.50;10.60;;;;;;;7.65;97.83;101402.75;687869;28;1190;-53
2021/10/28 00:54:32;;;;;;;14.40;10.57;;;;;;;7.65;98.01;101400.13;688690;28;1152;-53
2021/10/28 00:54:53;;;;;;;14.70;10.70;;;;;;;7.66;97.61;101401.03;686822;28;4408;-52
2021/10/28 00:55:14;;;;;;;15.13;10.43;;;;;;;7.63;98.21;101404.44;687137;28;1310;-53
2021/10/28 00:55:35;;;;;;;16.50;10.90;;;;;;;7.57;98.71;101403.44;688235;28;3131;-54
2021/10/28 00:55:56;;;;;;;16.25;10.60;;;;;;;7.56;98.58;101399.97;686322;28;2064;-51
2021/10/28 00:56:21;;;;;;;16.47;10.57;;;;;;;7.66;97.60;101394.09;687047;28;1386;-55
2021/10/28 00:56:43;;;;;;;14.73;10.40;;;;;;;7.64;97.71;101397.50;689244;28;1092;-53
2021/10/28 00:57:05;;;;;;;15.55;10.32;;;;;;;7.65;97.79;101400.13;689428;28;1194;-54
2021/10/28 00:57:25;;;;;;;15.20;10.38;;;;;;;7.66;97.63;101393.22;689591;28;1278;-53
2021/10/28 00:57:46;;;;;;;15.80;10.50;;;;;;;7.64;98.15;101402.72;689645;28;4336;-51
2021/10/28 00:58:08;;;;;;;16.48;11.05;;;;;;;7.59;97.72;101400.03;687105;28;1084;-52
2021/10/28 00:58:33;;;;;;;15.38;10.55;;;;;;;7.59;97.25;101404.38;687978;28;1191;-54
2021/10/28 00:58:53;;;;;;;14.35;10.43;;;;;;;7.58;97.83;101400.88;686902;28;3411;-51
2021/10/28 00:59:14;;;;;;;15.70;10.75;;;;;;;7.58;98.23;101392.19;687953;28;1186;-53
2021/10/28 00:59:34;;;;;;;15.87;10.63;;;;;;;7.50;98.75;101400.75;686256;28;1139;-54
2021/10/28 00:59:55;;;;;;;15.23;10.75;;;;;;;7.47;98.38;101394.59;687133;28;1119;-51
2021/10/28 01:00:15;;;;;;;15.00;10.73;;;;;;;7.54;98.12;101401.66;689377;28;1151;-53
2021/10/28 01:00:35;;;;;;;14.38;10.43;;;;;;;7.55;98.26;101397.34;689556;28;1179;-53
2021/10/28 01:21:20;;;;;;;16.98;11.98;;;;;;;7.76;97.51;101384.72;684502;28;1809;-51
2021/10/28 01:21:43;;;;;;;16.67;12.18;;;;;;;7.72;97.76;101390.72;686298;28;1183;-50
2021/10/28 01:22:04;;;;;;;16.83;12.25;;;;;;;7.67;98.23;101387.19;687795;28;1138;-51
2021/10/28 01:22:25;;;;;;;17.27;12.25;;;;;;;7.65;98.41;101389.72;689184;28;1183;-54
2021/10/28 01:22:45;;;;;;;16.07;11.27;;;;;;;7.72;97.39;101385.53;689770;28;1137;-51
2021/10/28 01:23:07;;;;;;;15.68;10.88;;;;;;;7.76;96.77;101387.34;689154;28;1134;-50
2021/10/28 01:23:28;;;;;;;15.38;10.60;;;;;;;7.82;96.56;101395.28;688408;28;3159;-52
2021/10/28 01:23:48;;;;;;;15.63;10.80;;;;;;;7.83;96.69;101393.53;689257;28;3322;-51
2021/10/28 01:24:09;;;;;;;15.38;11.10;;;;;;;7.86;96.69;101390.97;689277;28;1211;-52
2021/10/28 01:24:29;;;;;;;16.67;11.65;;;;;;;7.87;95.51;101392.75;685713;28;1411;-52
2021/10/28 01:24:50;;;;;;;16.90;11.30;;;;;;;7.86;96.16;101393.59;686240;28;4469;-54
2021/10/28 01:25:11;;;;;;;15.13;11.07;;;;;;;7.85;96.38;101391.84;687799;28;1971;-53
2021/10/28 01:25:32;;;;;;;17.77;11.70;;;;;;;7.81;96.58;101388.31;686502;28;1275;-51
2021/10/28 01:26:01;;;;;;;17.85;12.00;;;;;;;7.85;96.23;101391.84;686378;28;1708;-53
2021/10/28 01:26:23;;;;;;;18.02;12.30;;;;;;;7.88;96.96;101393.59;687487;28;1386;-50
2021/10/28 01:26:44;;;;;;;16.63;11.93;;;;;;;7.88;96.69;101396.22;687513;28;1962;-50
2021/10/28 01:27:08;;;;;;;17.48;12.25;;;;;;;7.87;98.21;101391.88;686879;28;1134;-50
2021/10/28 01:27:28;;;;;;;19.92;12.82;;;;;;;7.86;97.76;101390.97;688204;28;1266;-51
2021/10/28 01:27:49;;;;;;;18.85;11.93;;;;;;;7.84;97.76;101390.09;685952;28;4677;-54
2021/10/28 01:28:14;;;;;;;18.00;11.83;;;;;;;7.88;96.74;101391.00;687477;28;1352;-53
2021/10/28 01:28:37;;;;;;;17.52;11.38;;;;;;;7.89;96.96;101390.16;688335;28;1147;-50
2021/10/28 01:29:00;;;;;;;16.02;11.70;;;;;;;7.99;95.98;101389.50;687438;28;1314;-53
2021/10/28 01:29:21;;;;;;;15.73;11.40;;;;;;;7.98;95.87;101390.34;688115;28;1101;-53
2021/10/28 01:29:42;;;;;;;16.02;11.20;;;;;;;7.96;95.81;101389.41;686799;28;1873;-53
2021/10/28 01:30:05;;;;;;;16.02;11.30;;;;;;;7.99;95.15;101386.88;687328;28;2028;-50
2021/10/28 01:30:26;;;;;;;15.85;11.63;;;;;;;7.96;96.52;101379.00;686993;28;1164;-54
2021/10/28 01:30:52;;;;;;;17.07;12.20;;;;;;;7.89;97.25;101390.16;686866;28;5532;-54
2021/10/28 01:31:12;;;;;;;16.80;12.18;;;;;;;7.88;96.96;101391.91;688836;28;1131;-51
2021/10/28 01:31:34;;;;;;;15.83;11.67;;;;;;;7.88;96.04;101385.78;685130;28;1224;-53
2021/10/28 01:31:55;;;;;;;15.45;11.48;;;;;;;7.88;96.65;101384.09;684578;28;1255;-55
2021/10/28 01:32:16;;;;;;;15.47;11.33;;;;;;;7.88;95.71;101391.00;685121;28;1501;-52
2021/10/28 01:32:36;;;;;;;15.63;11.60;;;;;;;7.93;95.77;101384.16;684387;28;1361;-52
2021/10/28 01:32:57;;;;;;;16.48;11.70;;;;;;;7.94;95.56;101386.78;683445;28;3647;-51
2021/10/28 01:33:18;;;;;;;16.23;11.80;;;;;;;7.94;96.86;101389.38;685378;28;1327;-54
2021/10/28 01:33:40;;;;;;;18.08;13.20;;;;;;;8.05;96.86;101386.97;686831;28;1313;-55
2021/10/28 01:34:05;;;;;;;18.77;13.48;;;;;;;8.04;96.95;101392.16;685862;28;4464;-52
2021/10/28 01:34:25;;;;;;;16.38;12.18;;;;;;;7.98;96.29;101391.19;687655;28;1159;-53
2021/10/28 01:34:46;;;;;;;15.73;11.60;;;;;;;7.96;96.10;101390.31;687342;28;1004;-54
2021/10/28 01:35:07;;;;;;;15.95;11.40;;;;;;;7.92;96.77;101391.09;687369;28;1195;-52
2021/10/28 01:35:28;;;;;;;17.20;11.27;;;;;;;7.90;96.50;101389.31;686683;28;1148;-51
2021/10/28 01:35:49;;;;;;;16.90;11.60;;;;;;;7.85;97.13;101386.66;686573;28;1012;-51
2021/10/28 01:36:10;;;;;;;16.63;11.68;;;;;;;7.80;97.22;101386.53;686648;28;3427;-51
2021/10/28 01:36:31;;;;;;;18.20;11.90;;;;;;;7.82;96.97;101387.47;686855;28;1206;-51
2021/10/28 01:36:52;;;;;;;18.23;12.02;;;;;;;7.79;97.01;101381.31;686652;28;4308;-53
2021/10/28 01:37:15;;;;;;;17.48;11.80;;;;;;;7.74;98.15;101378.63;688599;28;1278;-53
2021/10/28 01:37:41;;;;;;;17.45;12.07;;;;;;;7.72;98.00;101384.66;687550;28;1288;-52
2021/10/28 01:38:01;;;;;;;16.02;11.90;;;;;;;7.74;97.42;101381.25;687137;28;1186;-53
2021/10/28 01:38:26;;;;;;;16.08;11.73;;;;;;;7.75;97.91;101384.72;686669;28;1162;-54
2021/10/28 01:38:47;;;;;;;18.15;12.77;;;;;;;7.71;98.54;101383.75;686869;28;1040;-50
2021/10/28 01:39:19;;;;;;;17.70;12.83;;;;;;;7.67;98.04;101381.97;687324;28;3284;-55
2021/10/28 01:39:40;;;;;;;18.52;13.25;;;;;;;7.64;98.54;101379.28;687538;28;1750;-53
2021/10/28 01:40:01;;;;;;;18.10;13.18;;;;;;;7.66;98.15;101385.41;687482;28;4329;-50
2021/10/28 01:40:21;;;;;;;16.80;11.68;;;;;;;7.67;97.61;101380.25;687160;28;1107;-53
2021/10/28 01:40:51;;;;;;;16.77;11.43;;;;;;;7.70;98.42;101381.13;687747;28;1143;-55
2021/10/28 01:41:12;;;;;;;19.45;12.60;;;;;;;7.67;98.45;101381.97;686917;28;1233;-50
2021/10/28 01:41:35;;;;;;;19.63;12.45;;;;;;;7.63;98.51;101381.03;687226;28;985;-53
2021/10/28 01:41:55;;;;;;;18.20;12.48;;;;;;;7.63;98.33;101380.16;686977;28;1395;-51
2021/10/28 01:42:15;;;;;;;17.50;12.23;;;;;;;7.62;98.66;101384.47;687311;28;3477;-51
2021/10/28 01:42:38;;;;;;;17.37;12.10;;;;;;;7.62;98.62;101383.59;687485;28;1242;-54
2021/10/28 01:42:58;;;;;;;16.63;11.80;;;;;;;7.65;97.74;101378.44;686981;28;4616;-55
2021/10/28 01:43:19;;;;;;;16.45;11.98;;;;;;;7.62;98.72;101383.59;687453;28;1111;-52
2021/10/28 01:43:39;;;;;;;17.20;12.37;;;;;;;7.62;98.15;101378.41;688029;28;1320;-54
2021/10/28 01:43:59;;;;;;;16.67;11.80;;;;;;;7.64;97.73;101381.91;687446;28;1435;-52
2021/10/28 01:44:20;;;;;;;16.63;12.05;;;;;;;7.65;97.34;101386.25;689096;28;1190;-53
2021/10/28 01:44:41;;;;;;;16.25;12.18;;;;;;;7.67;97.50;101381.97;687238;28;1557;-52
2021/10/28 01:45:02;;;;;;;17.60;12.50;;;;;;;7.70;98.03;101382.03;687344;28;1186;-52
2021/10/28 01:45:23;;;;;;;19.48;13.18;;;;;;;7.74;97.98;101382.94;687071;28;3596;-54
2021/10/28 01:45:43;;;;;;;19.00;13.27;;;;;;;7.79;97.14;101381.31;686368;28;4345;-51
2021/10/28 01:46:05;;;;;;;17.42;12.05;;;;;;;7.81;97.41;101375.28;687257;28;1348;-53
2021/10/28 01:46:26;;;;;;;16.23;12.07;;;;;;;7.80;97.22;101383.06;687120;28;1417;-53
2021/10/28 01:46:46;;;;;;;18.30;12.93;;;;;;;7.77;97.26;101380.41;686535;28;1131;-54
2021/10/28 01:47:12;;;;;;;18.65;12.35;;;;;;;7.75;97.60;101379.50;687854;28;1162;-52
2021/10/28 01:47:32;;;;;;;17.02;12.48;;;;;;;7.72;97.35;101375.09;686583;28;2342;-56
2021/10/28 01:47:53;;;;;;;16.47;11.80;;;;;;;7.77;96.85;101383.88;687226;28;991;-55
2021/10/28 01:48:13;;;;;;;19.50;12.15;;;;;;;7.77;97.14;101378.69;687907;28;1279;-51
2021/10/28 01:48:37;;;;;;;18.73;12.20;;;;;;;7.72;97.95;101380.31;686912;28;3696;-52
2021/10/28 01:48:58;;;;;;;17.27;11.82;;;;;;;7.75;97.34;101376.91;686102;28;4567;-53
2021/10/28 01:49:23;;;;;;;17.17;12.13;;;;;;;7.75;96.88;101377.75;688302;28;1250;-51
2021/10/28 01:49:44;;;;;;;15.40;11.82;;;;;;;7.75;96.75;101375.16;686143;28;1959;-52
2021/10/28 01:50:05;;;;;;;17.73;12.10;;;;;;;7.76;97.62;101371.72;686910;28;1142;-53
2021/10/28 01:50:28;;;;;;;17.73;12.20;;;;;;;7.76;98.10;101376.91;687863;28;1249;-53
2021/10/28 01:50:48;;;;;;;18.45;12.50;;;;;;;7.77;97.25;101370.88;686452;28;1895;-51
2021/10/28 01:51:10;;;;;;;17.80;13.20;;;;;;;7.79;97.05;101376.97;687850;28;3210;-54
2021/10/28 01:51:30;;;;;;;16.70;12.55;;;;;;;7.80;97.00;101372.66;686919;28;3476;-51
2021/10/28 01:51:53;;;;;;;16.27;12.50;;;;;;;7.83;96.42;101377.91;687341;28;5644;-55
2021/10/28 01:52:13;;;;;;;16.85;11.82;;;;;;;7.82;96.94;101373.56;689219;28;1217;-51
2021/10/28 01:52:39;;;;;;;16.33;11.90;;;;;;;7.83;96.28;101373.56;687788;28;1195;-53
2021/10/28 01:52:59;;;;;;;17.50;12.38;;;;;;;7.74;97.09;101377.75;687865;28;1421;-55
2021/10/28 01:53:20;;;;;;;17.63;12.37;;;;;;;7.66;97.38;101370.66;688225;28;1195;-54
2021/10/28 01:53:42;;;;;;;17.00;12.35;;;;;;;7.65;97.12;101371.50;687271;28;1409;-55
2021/10/28 01:54:03;;;;;;;16.90;12.38;;;;;;;7.63;97.24;101375.81;688585;28;1893;-51
2021/10/28 01:54:24;;;;;;;16.02;12.13;;;;;;;7.69;96.65;101369.00;687184;28;3761;-55
2021/10/28 01:54:45;;;;;;;16.98;11.90;;;;;;;7.71;96.82;101372.47;686746;28;4436;-53
2021/10/28 01:55:09;;;;;;;15.98;11.27;;;;;;;7.73;97.06;101373.41;687430;28;1287;-51
2021/10/28 01:55:29;;;;;;;17.20;12.13;;;;;;;7.70;96.79;101376.81;686144;28;1203;-54
2021/10/28 01:55:50;;;;;;;18.10;12.27;;;;;;;7.69;97.62;101375.06;686051;28;1105;-51
2021/10/28 01:56:10;;;;;;;18.87;13.00;;;;;;;7.64;98.42;101368.88;687796;28;997;-51
2021/10/28 01:56:32;;;;;;;19.77;12.60;;;;;;;7.60;98.03;101372.28;686679;28;1313;-51
2021/10/28 01:56:53;;;;;;;19.42;12.35;;;;;;;7.60;97.90;101374.88;686234;28;2977;-52
2021/10/28 01:57:22;;;;;;;18.25;12.43;;;;;;;7.63;98.02;101374.97;686308;28;2301;-53
2021/10/28 01:57:43;;;;;;;16.35;11.93;;;;;;;7.64;97.70;101369.78;686121;28;4610;-53
2021/10/28 01:58:03;;;;;;;15.65;11.65;;;;;;;7.70;97.10;101371.63;686808;28;1210;-52
2021/10/28 01:58:24;;;;;;;16.40;12.07;;;;;;;7.75;96.20;101369.09;687501;28;1182;-52
2021/10/28 01:58:48;;;;;;;16.90;12.40;;;;;;;7.74;96.78;101359.50;686008;28;1187;-51
2021/10/28 01:59:09;;;;;;;18.23;12.48;;;;;;;7.72;97.40;101363.84;687163;28;1209;-55
2021/10/28 01:59:29;;;;;;;18.48;12.55;;;;;;;7.72;97.78;101369.03;687845;28;1229;-53
2021/10/28 01:59:50;;;;;;;17.67;12.60;;;;;;;7.74;96.67;101368.22;687058;28;3387;-54
2021/10/28 02:00:19;;;;;;;17.90;12.48;;;;;;;7.79;96.77;101366.56;687092;28;1718;-51
2021/10/28 02:00:41;;;;;;;15.75;12.02;;;;;;;7.77;96.93;101370.00;687129;28;1069;-52
2021/10/28 02:01:04;;;;;;;16.20;12.00;;;;;;;7.74;96.73;101368.22;687287;28;4800;-49
2021/10/28 02:01:24;;;;;;;17.98;12.63;;;;;;;7.73;97.54;101371.66;687536;28;1089;-51
2021/10/28 02:01:45;;;;;;;17.10;12.40;;;;;;;7.73;97.41;101361.25;688014;28;1200;-50
2021/10/28 02:02:05;;;;;;;18.33;12.80;;;;;;;7.75;96.89;101364.75;687841;28;1103;-49
2021/10/28 02:02:26;;;;;;;16.60;12.20;;;;;;;7.80;96.48;101370.06;687103;28;3123;-50
2021/10/28 02:02:46;;;;;;;16.80;12.27;;;;;;;7.82;96.68;101368.34;686337;28;3546;-51
2021/10/28 02:03:07;;;;;;;17.63;12.13;;;;;;;7.80;97.14;101368.31;687105;28;1297;-49
2021/10/28 02:03:27;;;;;;;18.10;12.73;;;;;;;7.80;97.03;101362.25;687561;28;1319;-52
2021/10/28 02:03:48;;;;;;;17.90;13.20;;;;;;;7.79;97.08;101366.56;686243;28;4487;-52
2021/10/28 02:04:09;;;;;;;17.05;12.27;;;;;;;7.78;96.84;101359.63;687074;28;1135;-53
2021/10/28 02:04:29;;;;;;;18.20;12.30;;;;;;;7.80;97.14;101365.72;686578;28;917;-53
2021/10/28 02:04:50;;;;;;;18.70;12.43;;;;;;;7.82;96.70;101358.81;686701;28;1598;-53
2021/10/28 02:05:16;;;;;;;18.13;12.65;;;;;;;7.82;97.68;101361.44;687177;28;1923;-51
2021/10/28 02:05:36;;;;;;;18.50;12.23;;;;;;;7.80;97.52;101365.72;686688;28;3412;-52
2021/10/28 02:05:57;;;;;;;18.45;12.98;;;;;;;7.82;97.63;101364.03;687661;28;1103;-50
2021/10/28 02:06:19;;;;;;;18.60;12.87;;;;;;;7.80;98.23;101360.50;687831;28;1208;-49
2021/10/28 02:06:40;;;;;;;18.33;12.68;;;;;;;7.75;98.66;101363.88;689577;28;1406;-52
2021/10/28 02:07:01;;;;;;;19.30;12.30;;;;;;;7.71;98.47;101362.94;686670;28;4294;-52
2021/10/28 02:07:21;;;;;;;18.77;12.70;;;;;;;7.71;97.72;101356.88;686445;28;1211;-52
2021/10/28 02:07:43;;;;;;;18.10;12.17;;;;;;;7.72;98.08;101356.03;686773;28;1060;-51
2021/10/28 02:08:04;;;;;;;18.95;12.82;;;;;;;7.67;97.88;101353.34;687148;28;1103;-51
2021/10/28 02:08:25;;;;;;;19.10;13.10;;;;;;;7.65;97.78;101353.28;687589;28;3463;-50
2021/10/28 02:08:46;;;;;;;18.77;13.07;;;;;;;7.65;97.58;101349.81;686324;28;1428;-53
2021/10/28 02:09:07;;;;;;;17.85;13.05;;;;;;;7.61;98.26;101350.63;687534;28;1253;-50
2021/10/28 02:09:28;;;;;;;18.40;12.70;;;;;;;7.56;98.68;101352.25;688134;28;1194;-51
2021/10/28 02:09:48;;;;;;;18.90;13.40;;;;;;;7.54;99.05;101356.56;686852;28;4926;-52
2021/10/28 02:10:10;;;;;;;20.10;13.43;;;;;;;7.53;99.17;101354.81;688478;28;1035;-51
2021/10/28 02:10:31;;;;;;;18.75;13.38;;;;;;;7.55;98.66;101350.53;687654;28;1166;-53
2021/10/28 02:10:52;;;;;;;18.17;12.55;;;;;;;7.57;98.54;101359.22;687024;28;1302;-52
2021/10/28 02:11:13;;;;;;;20.50;13.70;;;;;;;7.56;98.65;101347.03;686733;28;3320;-55
2021/10/28 02:11:33;;;;;;;19.93;13.23;;;;;;;7.57;98.93;101354.00;687051;28;1581;-50
2021/10/28 02:11:54;;;;;;;19.13;12.68;;;;;;;7.58;98.39;101351.44;686697;28;1091;-50
2021/10/28 02:12:14;;;;;;;18.33;12.73;;;;;;;7.58;98.04;101348.84;686684;28;2382;-51
2021/10/28 02:12:38;;;;;;;18.13;12.82;;;;;;;7.59;98.39;101354.94;686888;28;1240;-52
2021/10/28 02:13:00;;;;;;;19.30;13.13;;;;;;;7.63;97.66;101349.81;687722;28;4413;-53
2021/10/28 02:13:21;;;;;;;18.55;12.52;;;;;;;7.60;98.85;101344.56;687515;28;1169;-52
2021/10/28 02:13:41;;;;;;;19.93;12.73;;;;;;;7.58;99.10;101346.22;686289;28;1126;-51
2021/10/28 02:14:02;;;;;;;19.73;13.00;;;;;;;7.55;98.92;101345.31;686647;28;4581;-51
2021/10/28 02:14:23;;;;;;;20.38;13.95;;;;;;;7.51;99.86;101349.56;686730;28;1469;-51
2021/10/28 02:14:43;;;;;;;19.23;13.20;;;;;;;7.52;99.49;101350.44;687423;28;1463;-53
2021/10/28 02:15:06;;;;;;;18.38;12.45;;;;;;;7.55;98.89;101347.91;688052;28;1059;-52
2021/10/28 02:15:26;;;;;;;16.73;11.80;;;;;;;7.58;98.14;101345.38;686384;28;1066;-52
2021/10/28 02:15:47;;;;;;;17.95;12.07;;;;;;;7.55;98.45;101346.19;685781;28;4533;-53
2021/10/28 02:16:08;;;;;;;20.23;12.70;;;;;;;7.55;98.59;101340.97;687112;28;1159;-50